createdAt,value
2018-12-31T00:02:09.146Z,33.73
2018-12-31T00:04:38.943Z,30.90
2018-12-31T00:07:08.598Z,26.17
2018-12-31T00:09:38.017Z,26.40
2018-12-31T00:12:07.665Z,24.53
2018-12-31T00:14:37.200Z,23.73
2018-12-31T00:17:06.775Z,24.70
2018-12-31T00:19:36.396Z,22.53
2018-12-31T00:22:06.927Z,19.63
2018-12-31T00:24:36.353Z,24.83
2018-12-31T00:27:05.966Z,21.00
2018-12-31T00:29:35.571Z,20.70
2018-12-31T00:32:05.077Z,21.37
2018-12-31T00:34:34.546Z,19.83
2018-12-31T00:37:04.121Z,20.17
2018-12-31T00:39:33.578Z,19.13
2018-12-31T00:42:03.072Z,19.50
2018-12-31T00:44:32.774Z,20.50
2018-12-31T00:47:02.421Z,21.60
2018-12-31T00:49:31.957Z,21.40
2018-12-31T00:52:01.396Z,24.70
2018-12-31T00:54:31.007Z,21.40
2018-12-31T00:57:00.597Z,20.77
2018-12-31T00:59:30.199Z,20.60
2018-12-31T01:01:59.626Z,24.17
2018-12-31T01:04:29.117Z,21.57
2018-12-31T01:06:58.659Z,21.07
2018-12-31T01:09:28.139Z,21.27
2018-12-31T01:11:57.694Z,20.77
2018-12-31T01:14:27.124Z,21.30
2018-12-31T01:16:56.780Z,21.03
2018-12-31T01:19:26.254Z,18.47
2018-12-31T01:21:55.794Z,19.30
2018-12-31T01:24:25.450Z,19.40
2018-12-31T01:26:55.089Z,18.77
2018-12-31T01:29:24.685Z,17.90
2018-12-31T01:31:54.300Z,18.70
2018-12-31T01:34:23.829Z,16.70
2018-12-31T01:36:53.267Z,18.10
2018-12-31T01:39:22.914Z,17.83
2018-12-31T01:41:52.548Z,16.80
2018-12-31T01:44:22.025Z,18.27
2018-12-31T01:46:51.566Z,17.57
2018-12-31T01:49:21.675Z,17.87
2018-12-31T01:51:51.176Z,19.50
2018-12-31T01:54:20.659Z,17.30
2018-12-31T01:56:50.185Z,17.43
2018-12-31T01:59:19.664Z,16.50
2018-12-31T02:01:49.265Z,14.90
2018-12-31T02:04:18.758Z,15.50
2018-12-31T02:06:48.194Z,15.60
2018-12-31T02:09:18.310Z,16.10
2018-12-31T02:11:47.825Z,16.70
2018-12-31T02:14:17.408Z,17.03
2018-12-31T02:16:46.767Z,14.90
2018-12-31T02:19:16.215Z,16.30
2018-12-31T02:21:45.691Z,15.97
2018-12-31T02:24:15.108Z,16.17
2018-12-31T02:26:44.615Z,15.77
2018-12-31T02:29:14.117Z,16.23
2018-12-31T02:31:43.673Z,16.17
2018-12-31T02:34:13.093Z,15.40
2018-12-31T02:36:42.564Z,15.07
2018-12-31T02:39:12.163Z,15.37
2018-12-31T02:41:41.657Z,15.93
2018-12-31T02:44:11.135Z,15.47
2018-12-31T02:46:40.966Z,15.00
2018-12-31T02:49:10.384Z,16.53
2018-12-31T02:51:39.962Z,15.10
2018-12-31T02:54:09.461Z,19.27
2018-12-31T02:56:39.109Z,20.63
2018-12-31T02:59:08.646Z,24.07
2018-12-31T03:01:38.087Z,22.50
2018-12-31T03:04:07.692Z,19.90
2018-12-31T03:06:37.331Z,21.73
2018-12-31T03:09:08.415Z,20.00
2018-12-31T03:11:37.840Z,19.77
2018-12-31T03:14:07.370Z,20.37
2018-12-31T03:16:36.977Z,19.97
2018-12-31T03:19:06.529Z,21.50
2018-12-31T03:21:36.005Z,33.10
2018-12-31T03:24:05.606Z,35.03
2018-12-31T03:26:35.131Z,39.80
2018-12-31T03:29:04.661Z,39.90
2018-12-31T03:31:34.141Z,40.10
2018-12-31T03:34:03.628Z,44.40
2018-12-31T03:36:33.085Z,46.80
2018-12-31T03:39:02.876Z,47.30
2018-12-31T03:41:32.357Z,45.67
2018-12-31T03:44:01.892Z,46.30
2018-12-31T03:46:31.385Z,44.67
2018-12-31T03:49:00.887Z,44.63
2018-12-31T03:51:30.341Z,42.13
2018-12-31T03:53:59.894Z,42.67
2018-12-31T03:56:29.492Z,41.60
2018-12-31T03:58:58.984Z,43.10
2018-12-31T04:01:28.637Z,39.00
2018-12-31T04:03:58.254Z,41.90
2018-12-31T04:06:27.921Z,42.40
2018-12-31T04:08:57.413Z,38.20
2018-12-31T04:11:27.007Z,31.50
2018-12-31T04:13:56.508Z,31.23
2018-12-31T04:16:26.000Z,33.90
2018-12-31T04:18:55.646Z,31.90
2018-12-31T04:21:25.231Z,33.07
2018-12-31T04:23:54.746Z,34.50
2018-12-31T04:26:24.170Z,38.37
2018-12-31T04:28:53.800Z,33.70
2018-12-31T04:31:23.485Z,33.37
2018-12-31T04:33:52.916Z,35.23
2018-12-31T04:36:22.386Z,33.63
2018-12-31T04:38:51.833Z,46.30
2018-12-31T04:41:21.371Z,41.83
2018-12-31T04:43:50.932Z,34.47
2018-12-31T04:46:20.408Z,31.33
2018-12-31T04:48:49.907Z,33.57
2018-12-31T04:51:19.508Z,34.43
2018-12-31T04:53:49.067Z,31.60
2018-12-31T04:56:18.517Z,30.90
2018-12-31T04:58:48.317Z,26.43
2018-12-31T05:01:18.981Z,27.70
2018-12-31T05:03:48.407Z,28.00
2018-12-31T05:06:17.832Z,28.23
2018-12-31T05:08:47.346Z,28.60
2018-12-31T05:11:16.895Z,25.90
2018-12-31T05:13:46.384Z,25.30
2018-12-31T05:16:15.907Z,26.27
2018-12-31T05:18:45.397Z,25.60
2018-12-31T05:21:14.892Z,34.70
2018-12-31T05:23:44.528Z,27.87
2018-12-31T05:26:14.011Z,27.87
2018-12-31T05:28:43.429Z,28.33
2018-12-31T05:31:13.025Z,26.63
2018-12-31T05:33:42.649Z,28.30
2018-12-31T05:36:12.125Z,29.30
2018-12-31T05:38:41.765Z,28.30
2018-12-31T05:41:11.213Z,39.97
2018-12-31T05:43:40.790Z,41.77
2018-12-31T05:46:10.307Z,47.43
2018-12-31T05:48:39.819Z,49.80
2018-12-31T05:51:09.298Z,40.47
2018-12-31T05:53:38.910Z,38.60
2018-12-31T05:56:08.503Z,33.30
2018-12-31T05:58:38.091Z,30.17
2018-12-31T06:01:07.616Z,27.37
2018-12-31T06:03:37.332Z,28.07
2018-12-31T06:06:06.831Z,30.87
2018-12-31T06:08:36.379Z,27.87
2018-12-31T06:11:05.762Z,28.80
2018-12-31T06:13:35.255Z,27.20
2018-12-31T06:16:04.712Z,28.60
2018-12-31T06:18:34.250Z,28.17
2018-12-31T06:21:03.691Z,24.73
2018-12-31T06:23:33.087Z,24.83
2018-12-31T06:26:02.627Z,28.83
2018-12-31T06:28:32.115Z,36.10
2018-12-31T06:31:01.863Z,33.80
2018-12-31T06:33:31.314Z,31.53
2018-12-31T06:36:00.816Z,30.10
2018-12-31T06:38:30.246Z,28.70
2018-12-31T06:40:59.681Z,28.53
2018-12-31T06:43:29.236Z,30.70
2018-12-31T06:45:58.822Z,31.40
2018-12-31T06:48:28.284Z,37.83
2018-12-31T06:50:57.733Z,35.10
2018-12-31T06:53:27.252Z,36.40
2018-12-31T06:55:56.719Z,35.50
2018-12-31T06:58:26.223Z,36.40
2018-12-31T07:00:55.655Z,37.70
2018-12-31T07:03:25.127Z,37.77
2018-12-31T07:05:54.671Z,38.50
2018-12-31T07:08:24.200Z,42.30
2018-12-31T07:10:53.776Z,43.33
2018-12-31T07:13:23.265Z,41.47
2018-12-31T07:15:52.815Z,40.23
2018-12-31T07:18:22.481Z,40.03
2018-12-31T07:20:51.880Z,41.40
2018-12-31T07:23:21.363Z,40.33
2018-12-31T07:25:50.836Z,37.17
2018-12-31T07:28:20.260Z,37.23
2018-12-31T07:30:49.726Z,37.33
2018-12-31T07:33:19.308Z,35.90
2018-12-31T07:35:48.791Z,35.23
2018-12-31T07:38:18.279Z,34.30
2018-12-31T07:40:47.736Z,39.83
2018-12-31T07:43:17.200Z,38.23
2018-12-31T07:45:46.789Z,39.73
2018-12-31T07:48:16.837Z,37.33
2018-12-31T07:50:46.268Z,38.53
2018-12-31T07:53:16.615Z,37.97
2018-12-31T07:55:46.154Z,33.27
2018-12-31T07:58:15.791Z,32.00
2018-12-31T08:00:45.325Z,31.73
2018-12-31T08:03:15.679Z,32.27
2018-12-31T08:05:45.349Z,37.40
2018-12-31T08:08:14.800Z,30.67
2018-12-31T08:10:44.217Z,29.00
2018-12-31T08:13:13.749Z,27.70
2018-12-31T08:15:43.183Z,28.33
2018-12-31T08:18:13.185Z,29.10
2018-12-31T08:20:42.755Z,28.43
2018-12-31T08:23:12.131Z,29.20
2018-12-31T08:25:41.669Z,35.80
2018-12-31T08:28:11.162Z,29.97
2018-12-31T08:30:40.654Z,27.33
2018-12-31T08:33:10.361Z,28.80
2018-12-31T08:35:39.852Z,27.90
2018-12-31T08:38:09.299Z,25.83
2018-12-31T08:40:38.798Z,34.77
2018-12-31T08:43:08.527Z,40.97
2018-12-31T08:45:38.148Z,43.70
2018-12-31T08:48:07.636Z,41.33
2018-12-31T08:50:37.219Z,35.63
2018-12-31T08:53:06.737Z,30.67
2018-12-31T08:55:36.168Z,28.47
2018-12-31T08:58:05.757Z,22.43
2018-12-31T09:00:35.354Z,20.80
2018-12-31T09:03:04.756Z,21.43
2018-12-31T09:05:34.318Z,20.80
2018-12-31T09:08:03.880Z,20.43
2018-12-31T09:10:33.370Z,20.43
2018-12-31T09:13:02.790Z,23.03
2018-12-31T09:15:32.383Z,20.60
2018-12-31T09:18:01.851Z,20.03
2018-12-31T09:20:31.369Z,19.10
2018-12-31T09:23:01.017Z,19.73
2018-12-31T09:25:30.554Z,16.67
2018-12-31T09:27:59.996Z,17.17
2018-12-31T09:30:29.517Z,17.80
2018-12-31T09:32:59.016Z,18.20
2018-12-31T09:35:28.451Z,18.07
2018-12-31T09:37:57.981Z,19.80
2018-12-31T09:40:27.562Z,21.80
2018-12-31T09:42:57.042Z,20.80
2018-12-31T09:45:26.461Z,19.37
2018-12-31T09:47:56.086Z,23.50
2018-12-31T09:50:25.577Z,22.20
2018-12-31T09:52:55.069Z,23.50
2018-12-31T09:55:24.578Z,23.33
2018-12-31T09:57:54.670Z,20.70
2018-12-31T10:00:24.201Z,23.87
2018-12-31T10:02:53.819Z,25.00
2018-12-31T10:05:23.367Z,20.10
2018-12-31T10:07:52.828Z,21.80
2018-12-31T10:10:22.260Z,21.07
2018-12-31T10:12:55.136Z,21.07
2018-12-31T10:15:24.577Z,22.00
2018-12-31T10:17:54.097Z,18.50
2018-12-31T10:20:23.647Z,18.27
2018-12-31T10:22:53.129Z,18.93
2018-12-31T10:25:22.631Z,17.30
2018-12-31T10:27:52.300Z,21.13
2018-12-31T10:30:21.888Z,18.73
2018-12-31T10:32:53.022Z,18.10
2018-12-31T10:35:22.616Z,18.70
2018-12-31T10:37:58.637Z,22.20
2018-12-31T10:40:28.329Z,21.50
2018-12-31T10:42:57.983Z,14.93
2018-12-31T10:45:27.498Z,16.17
2018-12-31T10:47:56.930Z,16.60
2018-12-31T10:50:26.347Z,8.63
2018-12-31T10:52:55.919Z,16.80
2018-12-31T10:55:25.306Z,11.93
2018-12-31T10:57:54.808Z,13.80
2018-12-31T11:00:24.324Z,11.80
2018-12-31T11:02:53.783Z,12.50
2018-12-31T11:05:23.334Z,9.50
2018-12-31T11:07:52.838Z,11.93
2018-12-31T11:10:22.339Z,10.60
2018-12-31T11:12:51.787Z,18.10
2018-12-31T11:15:21.296Z,13.20
2018-12-31T11:17:50.695Z,16.10
2018-12-31T11:20:20.115Z,23.67
2018-12-31T11:22:49.613Z,15.40
2018-12-31T11:25:19.145Z,13.87
2018-12-31T11:27:48.548Z,16.87
2018-12-31T11:30:18.122Z,16.90
2018-12-31T11:32:47.623Z,23.77
2018-12-31T11:35:17.026Z,12.70
2018-12-31T11:37:46.528Z,16.67
2018-12-31T11:40:16.126Z,22.10
2018-12-31T11:42:45.533Z,15.60
2018-12-31T11:45:14.947Z,19.20
2018-12-31T11:47:44.475Z,24.77
2018-12-31T11:50:13.929Z,15.33
2018-12-31T11:52:43.360Z,16.37
2018-12-31T11:55:13.036Z,20.57
2018-12-31T11:57:42.589Z,22.70
2018-12-31T12:00:12.000Z,16.00
2018-12-31T12:02:41.478Z,22.93
2018-12-31T12:05:11.039Z,12.40
2018-12-31T12:07:40.549Z,15.80
2018-12-31T12:10:09.978Z,20.97
2018-12-31T12:12:39.443Z,13.23
2018-12-31T12:15:08.831Z,18.70
2018-12-31T12:17:38.329Z,18.60
2018-12-31T12:20:07.847Z,26.27
2018-12-31T12:22:38.970Z,24.60
2018-12-31T12:25:08.388Z,17.27
2018-12-31T12:27:37.887Z,15.50
2018-12-31T12:30:08.458Z,21.67
2018-12-31T12:32:37.919Z,21.43
2018-12-31T12:35:07.564Z,20.07
2018-12-31T12:37:37.064Z,16.70
2018-12-31T12:40:06.780Z,17.90
2018-12-31T12:42:36.239Z,13.23
2018-12-31T12:45:06.239Z,20.47
2018-12-31T12:47:35.673Z,15.00
2018-12-31T12:50:05.360Z,13.70
2018-12-31T12:52:34.823Z,15.03
2018-12-31T12:55:04.278Z,17.90
2018-12-31T12:57:33.771Z,18.70
2018-12-31T13:00:03.301Z,14.07
2018-12-31T13:02:32.701Z,17.07
2018-12-31T13:05:03.873Z,12.37
2018-12-31T13:07:33.432Z,12.50
2018-12-31T13:10:02.966Z,16.87
2018-12-31T13:12:32.444Z,19.60
2018-12-31T13:15:02.030Z,20.90
2018-12-31T13:17:31.981Z,20.20
2018-12-31T13:20:01.886Z,17.70
2018-12-31T13:22:31.434Z,18.63
2018-12-31T13:25:00.937Z,16.23
2018-12-31T13:27:30.380Z,15.97
2018-12-31T13:29:59.793Z,14.33
2018-12-31T13:32:29.552Z,20.43
2018-12-31T13:34:59.023Z,24.40
2018-12-31T13:37:28.513Z,20.27
2018-12-31T13:39:57.977Z,20.73
2018-12-31T13:42:27.406Z,21.10
2018-12-31T13:44:56.993Z,16.50
2018-12-31T13:47:26.473Z,17.43
2018-12-31T13:49:56.059Z,15.23
2018-12-31T13:52:25.592Z,17.87
2018-12-31T13:54:55.132Z,17.33
2018-12-31T13:57:24.521Z,22.40
2018-12-31T13:59:53.956Z,13.90
2018-12-31T14:02:23.711Z,14.50
2018-12-31T14:04:53.197Z,18.57
2018-12-31T14:07:22.595Z,48.67
2018-12-31T14:09:52.125Z,17.60
2018-12-31T14:12:21.690Z,47.17
2018-12-31T14:14:51.157Z,26.37
2018-12-31T14:17:20.731Z,20.10
2018-12-31T14:19:51.277Z,19.53
2018-12-31T14:22:20.731Z,21.63
2018-12-31T14:24:50.159Z,23.37
2018-12-31T14:27:19.713Z,20.87
2018-12-31T14:29:49.310Z,29.70
2018-12-31T14:32:18.749Z,36.63
2018-12-31T14:34:48.275Z,186.63
2018-12-31T14:37:19.157Z,25.30
2018-12-31T14:39:48.575Z,22.03
2018-12-31T14:42:18.038Z,24.33
2018-12-31T14:44:47.586Z,25.70
2018-12-31T14:47:18.515Z,25.30
2018-12-31T14:49:50.961Z,24.77
2018-12-31T14:52:20.432Z,28.37
2018-12-31T14:54:50.051Z,41.10
2018-12-31T14:57:19.546Z,50.90
2018-12-31T14:59:49.023Z,49.63
2018-12-31T15:02:18.463Z,51.47
2018-12-31T15:04:47.913Z,50.67
2018-12-31T15:07:17.419Z,47.37
2018-12-31T15:09:46.933Z,48.67
2018-12-31T15:12:16.369Z,46.90
2018-12-31T15:14:45.919Z,49.70
2018-12-31T15:17:15.441Z,51.83
2018-12-31T15:19:44.971Z,54.97
2018-12-31T15:22:14.472Z,63.47
2018-12-31T15:24:44.073Z,65.70
2018-12-31T15:27:13.544Z,59.90
2018-12-31T15:29:43.034Z,69.13
2018-12-31T15:32:12.643Z,53.47
2018-12-31T15:34:42.127Z,47.63
2018-12-31T15:37:11.618Z,47.03
2018-12-31T15:39:41.138Z,57.87
2018-12-31T15:42:10.629Z,82.00
2018-12-31T15:44:40.073Z,64.00
2018-12-31T15:47:09.570Z,82.30
2018-12-31T15:49:39.229Z,112.97
2018-12-31T15:52:08.700Z,103.07
2018-12-31T15:54:40.973Z,126.50
2018-12-31T15:57:11.687Z,120.27
2018-12-31T15:59:41.181Z,108.43
2018-12-31T16:02:10.752Z,97.13
2018-12-31T16:04:40.369Z,89.30
2018-12-31T16:07:09.946Z,83.97
2018-12-31T16:09:40.192Z,86.57
2018-12-31T16:12:09.744Z,101.27
2018-12-31T16:14:39.157Z,92.90
2018-12-31T16:17:09.210Z,80.00
2018-12-31T16:19:38.734Z,86.40
2018-12-31T16:22:08.195Z,90.23
2018-12-31T16:24:37.644Z,90.33
2018-12-31T16:27:07.138Z,101.43
2018-12-31T16:29:36.724Z,103.53
2018-12-31T16:32:06.166Z,112.57
2018-12-31T16:34:35.693Z,143.57
2018-12-31T16:37:05.083Z,119.37
2018-12-31T16:39:34.584Z,105.30
2018-12-31T16:42:04.126Z,100.30
2018-12-31T16:44:33.619Z,98.90
2018-12-31T16:47:03.089Z,98.63
2018-12-31T16:49:32.643Z,103.57
2018-12-31T16:52:02.736Z,101.27
2018-12-31T16:54:33.187Z,103.37
2018-12-31T16:57:02.695Z,87.20
2018-12-31T16:59:32.206Z,77.80
2018-12-31T17:02:01.662Z,75.20
2018-12-31T17:04:31.078Z,70.80
2018-12-31T17:07:00.882Z,69.13
2018-12-31T17:09:30.344Z,61.90
2018-12-31T17:11:59.786Z,62.57
2018-12-31T17:14:29.362Z,63.23
2018-12-31T17:16:58.800Z,68.67
2018-12-31T17:19:28.631Z,67.53
2018-12-31T17:21:58.158Z,61.70
2018-12-31T17:24:27.630Z,53.00
2018-12-31T17:26:57.147Z,56.70
2018-12-31T17:29:26.789Z,63.43
2018-12-31T17:31:56.523Z,54.43
2018-12-31T17:34:25.974Z,54.87
2018-12-31T17:36:55.506Z,52.03
2018-12-31T17:39:25.021Z,56.33
2018-12-31T17:41:54.452Z,59.33
2018-12-31T17:44:23.951Z,63.37
2018-12-31T17:46:53.521Z,71.13
2018-12-31T17:49:23.124Z,68.10
2018-12-31T17:51:55.810Z,65.27
2018-12-31T17:54:23.927Z,62.33
2018-12-31T17:56:53.407Z,60.33
2018-12-31T17:59:22.804Z,62.37
2018-12-31T18:01:52.398Z,71.97
2018-12-31T18:04:21.898Z,87.67
2018-12-31T18:06:51.335Z,88.77
2018-12-31T18:09:20.831Z,85.20
2018-12-31T18:11:50.338Z,89.10
2018-12-31T18:14:19.740Z,84.83
2018-12-31T18:16:49.314Z,84.07
2018-12-31T18:19:19.062Z,97.23
2018-12-31T18:21:48.521Z,131.77
2018-12-31T18:24:17.923Z,124.20
2018-12-31T18:26:47.436Z,83.73
2018-12-31T18:29:16.969Z,59.73
2018-12-31T18:31:46.618Z,57.90
2018-12-31T18:34:16.194Z,55.73
2018-12-31T18:36:45.649Z,61.90
2018-12-31T18:39:15.056Z,69.30
2018-12-31T18:41:44.551Z,62.60
2018-12-31T18:44:14.332Z,63.60
2018-12-31T18:46:43.737Z,78.13
2018-12-31T18:49:13.195Z,63.97
2018-12-31T18:51:42.771Z,55.07
2018-12-31T18:54:12.223Z,64.50
2018-12-31T18:56:42.150Z,67.13
2018-12-31T18:59:11.757Z,70.43
2018-12-31T19:01:41.212Z,71.33
2018-12-31T19:04:10.754Z,66.20
2018-12-31T19:06:40.257Z,74.57
2018-12-31T19:09:10.046Z,74.63
2018-12-31T19:11:39.470Z,77.30
2018-12-31T19:14:08.958Z,76.40
2018-12-31T19:16:38.402Z,70.83
2018-12-31T19:19:07.858Z,66.13
2018-12-31T19:21:37.575Z,64.50
2018-12-31T19:24:07.104Z,55.27
2018-12-31T19:26:36.536Z,62.80
2018-12-31T19:29:05.959Z,58.73
2018-12-31T19:31:35.446Z,49.30
2018-12-31T19:34:05.045Z,48.90
2018-12-31T19:36:34.682Z,44.90
2018-12-31T19:39:05.437Z,48.60
2018-12-31T19:41:34.969Z,54.27
2018-12-31T19:44:04.480Z,52.67
2018-12-31T19:46:34.058Z,41.60
2018-12-31T19:49:03.497Z,42.30
2018-12-31T19:51:32.924Z,46.93
2018-12-31T19:54:03.419Z,52.50
2018-12-31T19:56:36.603Z,50.43
2018-12-31T19:59:06.026Z,47.90
2018-12-31T20:01:36.113Z,47.53
2018-12-31T20:04:05.589Z,49.10
2018-12-31T20:06:35.041Z,54.33
2018-12-31T20:09:05.989Z,59.43
2018-12-31T20:11:35.516Z,62.67
2018-12-31T20:14:05.005Z,66.07
2018-12-31T20:16:34.699Z,75.97
2018-12-31T20:19:04.961Z,75.37
2018-12-31T20:21:34.751Z,66.73
2018-12-31T20:24:04.211Z,76.70
2018-12-31T20:26:33.730Z,72.43
2018-12-31T20:29:03.234Z,83.43
2018-12-31T20:31:32.703Z,89.77
2018-12-31T20:34:02.252Z,92.73
2018-12-31T20:36:31.767Z,101.47
2018-12-31T20:39:01.300Z,109.67
2018-12-31T20:41:30.796Z,106.13
2018-12-31T20:44:00.451Z,91.50
2018-12-31T20:46:29.951Z,73.57
2018-12-31T20:48:59.573Z,62.43
2018-12-31T20:51:29.111Z,57.03
2018-12-31T20:53:58.641Z,60.63
2018-12-31T20:56:28.202Z,64.50
2018-12-31T20:58:57.723Z,63.00
2018-12-31T21:01:27.451Z,59.70
2018-12-31T21:03:56.897Z,66.90
2018-12-31T21:06:26.547Z,77.00
2018-12-31T21:08:56.062Z,72.57
2018-12-31T21:11:25.501Z,57.90
2018-12-31T21:13:55.483Z,47.00
2018-12-31T21:16:24.943Z,43.87
2018-12-31T21:18:54.335Z,58.40
2018-12-31T21:21:23.826Z,65.87
2018-12-31T21:23:53.388Z,76.93
2018-12-31T21:26:23.205Z,72.50
2018-12-31T21:28:52.703Z,67.20
2018-12-31T21:31:22.211Z,60.20
2018-12-31T21:33:51.681Z,54.57
2018-12-31T21:36:21.143Z,45.20
2018-12-31T21:38:51.010Z,45.30
2018-12-31T21:41:20.408Z,55.00
2018-12-31T21:43:49.830Z,48.50
2018-12-31T21:46:19.468Z,59.13
2018-12-31T21:48:49.092Z,58.47
2018-12-31T21:51:18.890Z,52.33
2018-12-31T21:53:48.454Z,54.10
2018-12-31T21:56:17.880Z,66.90
2018-12-31T21:58:47.353Z,57.03
2018-12-31T22:01:16.843Z,53.97
2018-12-31T22:03:46.780Z,56.83
2018-12-31T22:06:16.392Z,46.80
2018-12-31T22:08:45.922Z,39.33
2018-12-31T22:11:15.381Z,39.50
2018-12-31T22:13:44.811Z,53.67
2018-12-31T22:16:14.753Z,113.20
2018-12-31T22:18:44.270Z,181.93
2018-12-31T22:21:13.712Z,226.43
2018-12-31T22:23:43.191Z,169.30
2018-12-31T22:26:12.690Z,138.27
2018-12-31T22:28:42.609Z,140.57
2018-12-31T22:31:12.199Z,141.00
2018-12-31T22:33:41.808Z,134.83
2018-12-31T22:36:11.294Z,127.90
2018-12-31T22:38:40.797Z,112.20
2018-12-31T22:41:10.400Z,71.57
2018-12-31T22:43:39.899Z,61.00
2018-12-31T22:46:09.520Z,51.67
2018-12-31T22:48:38.949Z,51.33
2018-12-31T22:51:08.415Z,56.87
2018-12-31T22:53:38.022Z,61.03
2018-12-31T22:56:07.515Z,65.80
2018-12-31T22:58:37.100Z,49.77
2018-12-31T23:01:06.523Z,50.57
2018-12-31T23:03:36.052Z,51.13
2018-12-31T23:06:05.522Z,52.67
2018-12-31T23:08:35.058Z,53.30
2018-12-31T23:11:04.582Z,45.27
2018-12-31T23:13:40.135Z,44.53
2018-12-31T23:16:11.738Z,63.53
2018-12-31T23:18:41.160Z,64.33
2018-12-31T23:21:10.623Z,45.73
2018-12-31T23:23:40.125Z,44.00
2018-12-31T23:26:09.590Z,45.53
2018-12-31T23:28:39.377Z,44.90
2018-12-31T23:31:08.892Z,56.00
2018-12-31T23:33:38.279Z,44.70
2018-12-31T23:36:07.738Z,45.50
2018-12-31T23:38:37.227Z,44.87
2018-12-31T23:41:06.938Z,50.47
2018-12-31T23:43:36.401Z,48.60
2018-12-31T23:46:05.905Z,42.80
2018-12-31T23:48:35.525Z,38.30
2018-12-31T23:51:04.977Z,36.70
2018-12-31T23:53:34.778Z,51.90
2018-12-31T23:56:04.215Z,78.63
2018-12-31T23:58:33.644Z,107.00
